LFLC/CFE METAR and TAF weather

Enter ICAO airport designator
Station Type Date Time Source
LFLC METAR 2022/01/29 02:00 UTC NOAA

LFLC 290200Z AUTO 17008KT 140V210 9999 FEW010 M01/M02 Q1036 TEMPO 0500 FZFG VV///


Station Type Date Time Source
LFLC Decoded METAR 2022/01/29 02:00 UTC NOAA

Clermont-Ferrand, France (LFLC) 45-47N 003-10E 330M
Jan 28, 2022 - 09:00 PM EST / 2022.01.29 0200 UTC
Wind: from the S (170 degrees) at 9 MPH (8 KT) (direction variable):0
Visibility: greater than 7 mile(s):0
Sky conditions: mostly clear
Temperature: 30 F (-1 C)
Windchill: 21 F (-6 C):1
Dew Point: 28 F (-2 C)
Relative Humidity: 92%
Pressure (altimeter): 30.59 in. Hg (1036 hPa)
ob: LFLC 290200Z AUTO 17008KT 140V210 9999 FEW010 M01/M02 Q1036 TEMPO 0500 FZFG VV///
cycle: 2

Station Type Date Time Source
LFLC TAF 2022/01/28 21:08 UTC NOAA

TAF
AMD LFLC 282159Z 2821/2918 02004KT 9999 OVC006
TEMPO 2821/2910 3000 BR OVC004 PROB40
TEMPO 2822/2903 0800 FG VV/// PROB40
TEMPO 2903/2908 0500 FZFG VV///
BECMG 2909/2911 17006KT FEW010 BKN020
BECMG 2913/2915 VRB02KT

Example: see airport list